sensor_id;sensor_type;location;lat;lon;timestamp;P1;durP1;ratioP1;P2;durP2;ratioP2
35522;SDS011;61478;50.820;4.330;2022-11-24T00:01:35;24.00;;;5.85;;
35522;SDS011;61478;50.820;4.330;2022-11-24T00:04:02;34.88;;;6.47;;
35522;SDS011;61478;50.820;4.330;2022-11-24T00:06:30;25.35;;;4.95;;
35522;SDS011;61478;50.820;4.330;2022-11-24T00:08:57;35.40;;;7.40;;
35522;SDS011;61478;50.820;4.330;2022-11-24T00:11:24;29.20;;;6.57;;
35522;SDS011;61478;50.820;4.330;2022-11-24T00:13:52;39.80;;;6.97;;
35522;SDS011;61478;50.820;4.330;2022-11-24T00:16:20;23.73;;;6.03;;
35522;SDS011;61478;50.820;4.330;2022-11-24T00:18:49;32.25;;;6.40;;
35522;SDS011;61478;50.820;4.330;2022-11-24T00:21:17;30.65;;;6.85;;
35522;SDS011;61478;50.820;4.330;2022-11-24T00:23:43;35.40;;;6.78;;
35522;SDS011;61478;50.820;4.330;2022-11-24T00:26:10;34.10;;;6.57;;
35522;SDS011;61478;50.820;4.330;2022-11-24T00:28:38;31.25;;;6.50;;
35522;SDS011;61478;50.820;4.330;2022-11-24T00:31:13;30.73;;;6.30;;
35522;SDS011;61478;50.820;4.330;2022-11-24T00:33:41;32.35;;;7.32;;
35522;SDS011;61478;50.820;4.330;2022-11-24T00:36:07;26.52;;;6.00;;
35522;SDS011;61478;50.820;4.330;2022-11-24T00:38:33;35.88;;;7.63;;
35522;SDS011;61478;50.820;4.330;2022-11-24T00:40:59;28.23;;;6.63;;
35522;SDS011;61478;50.820;4.330;2022-11-24T00:43:25;25.10;;;6.10;;
35522;SDS011;61478;50.820;4.330;2022-11-24T00:45:50;39.25;;;6.78;;
35522;SDS011;61478;50.820;4.330;2022-11-24T00:48:17;40.47;;;8.15;;
35522;SDS011;61478;50.820;4.330;2022-11-24T00:50:43;34.40;;;7.68;;
35522;SDS011;61478;50.820;4.330;2022-11-24T00:53:09;28.63;;;6.53;;
35522;SDS011;61478;50.820;4.330;2022-11-24T00:55:35;33.42;;;7.00;;
35522;SDS011;61478;50.820;4.330;2022-11-24T00:58:01;38.25;;;7.53;;
35522;SDS011;61478;50.820;4.330;2022-11-24T01:00:27;34.50;;;7.13;;
35522;SDS011;61478;50.820;4.330;2022-11-24T01:02:53;45.40;;;11.15;;
35522;SDS011;61478;50.820;4.330;2022-11-24T01:05:19;25.85;;;6.25;;
35522;SDS011;61478;50.820;4.330;2022-11-24T01:07:45;27.10;;;7.25;;
35522;SDS011;61478;50.820;4.330;2022-11-24T01:10:10;36.55;;;7.60;;
35522;SDS011;61478;50.820;4.330;2022-11-24T01:12:37;38.10;;;7.13;;
35522;SDS011;61478;50.820;4.330;2022-11-24T01:15:03;39.00;;;7.57;;
35522;SDS011;61478;50.820;4.330;2022-11-24T01:17:29;36.90;;;8.02;;
35522;SDS011;61478;50.820;4.330;2022-11-24T01:19:55;34.42;;;7.93;;
35522;SDS011;61478;50.820;4.330;2022-11-24T01:22:21;37.58;;;8.32;;
35522;SDS011;61478;50.820;4.330;2022-11-24T01:24:49;34.78;;;8.07;;
35522;SDS011;61478;50.820;4.330;2022-11-24T01:27:15;32.90;;;8.13;;
35522;SDS011;61478;50.820;4.330;2022-11-24T01:29:41;37.15;;;8.55;;
35522;SDS011;61478;50.820;4.330;2022-11-24T01:32:06;42.08;;;9.05;;
35522;SDS011;61478;50.820;4.330;2022-11-24T01:34:32;30.20;;;7.47;;
35522;SDS011;61478;50.820;4.330;2022-11-24T01:36:58;36.88;;;8.25;;
35522;SDS011;61478;50.820;4.330;2022-11-24T01:39:24;27.60;;;7.30;;
35522;SDS011;61478;50.820;4.330;2022-11-24T01:41:50;35.97;;;8.55;;
35522;SDS011;61478;50.820;4.330;2022-11-24T01:46:57;36.58;;;8.27;;
35522;SDS011;61478;50.820;4.330;2022-11-24T01:49:24;45.92;;;9.38;;
35522;SDS011;61478;50.820;4.330;2022-11-24T01:51:59;35.00;;;7.45;;
35522;SDS011;61478;50.820;4.330;2022-11-24T01:54:30;36.03;;;8.38;;
35522;SDS011;61478;50.820;4.330;2022-11-24T01:57:02;33.10;;;7.55;;
35522;SDS011;61478;50.820;4.330;2022-11-24T01:59:34;34.05;;;8.23;;
35522;SDS011;61478;50.820;4.330;2022-11-24T02:02:00;42.25;;;7.88;;
35522;SDS011;61478;50.820;4.330;2022-11-24T02:04:27;31.92;;;7.95;;
35522;SDS011;61478;50.820;4.330;2022-11-24T02:06:57;36.58;;;8.55;;
35522;SDS011;61478;50.820;4.330;2022-11-24T02:09:27;34.05;;;7.78;;
35522;SDS011;61478;50.820;4.330;2022-11-24T02:12:10;39.45;;;7.82;;
35522;SDS011;61478;50.820;4.330;2022-11-24T02:14:37;31.75;;;6.95;;
35522;SDS011;61478;50.820;4.330;2022-11-24T02:17:05;33.35;;;7.75;;
35522;SDS011;61478;50.820;4.330;2022-11-24T02:25:02;35.15;;;7.65;;
35522;SDS011;61478;50.820;4.330;2022-11-24T02:27:41;38.13;;;7.70;;
35522;SDS011;61478;50.820;4.330;2022-11-24T02:30:08;30.92;;;7.68;;
35522;SDS011;61478;50.820;4.330;2022-11-24T02:32:35;45.05;;;8.82;;
35522;SDS011;61478;50.820;4.330;2022-11-24T02:35:07;38.08;;;8.05;;
35522;SDS011;61478;50.820;4.330;2022-11-24T02:37:35;33.28;;;8.10;;
35522;SDS011;61478;50.820;4.330;2022-11-24T02:40:02;45.90;;;8.15;;
35522;SDS011;61478;50.820;4.330;2022-11-24T02:42:29;35.97;;;7.35;;
35522;SDS011;61478;50.820;4.330;2022-11-24T02:44:59;41.40;;;7.35;;
35522;SDS011;61478;50.820;4.330;2022-11-24T02:47:25;39.03;;;7.88;;
35522;SDS011;61478;50.820;4.330;2022-11-24T02:49:51;37.28;;;7.90;;
35522;SDS011;61478;50.820;4.330;2022-11-24T02:52:17;33.20;;;8.00;;
35522;SDS011;61478;50.820;4.330;2022-11-24T02:54:43;34.30;;;6.53;;
35522;SDS011;61478;50.820;4.330;2022-11-24T02:57:09;33.30;;;7.70;;
35522;SDS011;61478;50.820;4.330;2022-11-24T02:59:35;34.78;;;7.45;;
35522;SDS011;61478;50.820;4.330;2022-11-24T03:02:01;35.25;;;7.28;;
35522;SDS011;61478;50.820;4.330;2022-11-24T03:04:27;36.38;;;7.32;;
35522;SDS011;61478;50.820;4.330;2022-11-24T03:06:53;43.28;;;8.10;;
35522;SDS011;61478;50.820;4.330;2022-11-24T03:09:19;43.05;;;8.10;;
35522;SDS011;61478;50.820;4.330;2022-11-24T03:11:45;30.92;;;6.65;;
35522;SDS011;61478;50.820;4.330;2022-11-24T03:14:11;30.42;;;6.78;;
35522;SDS011;61478;50.820;4.330;2022-11-24T03:16:37;24.38;;;5.88;;
35522;SDS011;61478;50.820;4.330;2022-11-24T03:19:03;25.08;;;5.78;;
35522;SDS011;61478;50.820;4.330;2022-11-24T03:21:29;26.42;;;5.30;;
35522;SDS011;61478;50.820;4.330;2022-11-24T03:23:55;23.92;;;4.85;;
35522;SDS011;61478;50.820;4.330;2022-11-24T03:26:21;18.23;;;4.90;;
35522;SDS011;61478;50.820;4.330;2022-11-24T03:28:48;18.27;;;4.35;;
35522;SDS011;61478;50.820;4.330;2022-11-24T03:31:21;14.75;;;4.40;;
35522;SDS011;61478;50.820;4.330;2022-11-24T03:33:47;17.75;;;3.30;;
35522;SDS011;61478;50.820;4.330;2022-11-24T03:36:13;11.00;;;3.00;;
35522;SDS011;61478;50.820;4.330;2022-11-24T03:38:39;19.08;;;3.00;;
35522;SDS011;61478;50.820;4.330;2022-11-24T03:41:05;13.27;;;2.80;;
35522;SDS011;61478;50.820;4.330;2022-11-24T03:43:31;11.88;;;3.00;;
35522;SDS011;61478;50.820;4.330;2022-11-24T03:45:57;15.45;;;3.75;;
35522;SDS011;61478;50.820;4.330;2022-11-24T03:48:22;15.63;;;3.50;;
35522;SDS011;61478;50.820;4.330;2022-11-24T03:50:52;14.15;;;3.22;;
35522;SDS011;61478;50.820;4.330;2022-11-24T03:53:20;15.57;;;3.30;;
35522;SDS011;61478;50.820;4.330;2022-11-24T03:55:46;20.20;;;4.30;;
35522;SDS011;61478;50.820;4.330;2022-11-24T03:58:12;15.85;;;3.55;;
35522;SDS011;61478;50.820;4.330;2022-11-24T04:00:38;17.38;;;3.78;;
35522;SDS011;61478;50.820;4.330;2022-11-24T04:03:04;14.15;;;3.53;;
35522;SDS011;61478;50.820;4.330;2022-11-24T04:05:29;14.52;;;3.35;;
35522;SDS011;61478;50.820;4.330;2022-11-24T04:07:57;13.07;;;3.08;;
35522;SDS011;61478;50.820;4.330;2022-11-24T04:10:27;14.75;;;3.00;;
35522;SDS011;61478;50.820;4.330;2022-11-24T04:12:53;15.18;;;2.88;;
35522;SDS011;61478;50.820;4.330;2022-11-24T04:15:19;8.10;;;2.38;;
35522;SDS011;61478;50.820;4.330;2022-11-24T04:17:46;10.88;;;2.22;;
35522;SDS011;61478;50.820;4.330;2022-11-24T04:20:13;7.45;;;2.38;;
35522;SDS011;61478;50.820;4.330;2022-11-24T04:22:40;7.05;;;1.90;;
35522;SDS011;61478;50.820;4.330;2022-11-24T04:25:06;7.72;;;2.15;;
35522;SDS011;61478;50.820;4.330;2022-11-24T04:27:34;6.80;;;1.75;;
35522;SDS011;61478;50.820;4.330;2022-11-24T04:30:01;10.00;;;2.42;;
35522;SDS011;61478;50.820;4.330;2022-11-24T04:32:28;6.03;;;1.88;;
35522;SDS011;61478;50.820;4.330;2022-11-24T04:34:54;11.18;;;2.17;;
35522;SDS011;61478;50.820;4.330;2022-11-24T04:37:20;11.65;;;3.78;;
35522;SDS011;61478;50.820;4.330;2022-11-24T04:39:46;6.75;;;2.00;;
35522;SDS011;61478;50.820;4.330;2022-11-24T04:42:12;6.93;;;1.98;;
35522;SDS011;61478;50.820;4.330;2022-11-24T04:44:38;10.02;;;2.25;;
35522;SDS011;61478;50.820;4.330;2022-11-24T04:47:04;6.95;;;1.60;;
35522;SDS011;61478;50.820;4.330;2022-11-24T04:49:30;7.63;;;2.28;;
35522;SDS011;61478;50.820;4.330;2022-11-24T04:51:56;7.13;;;2.00;;
35522;SDS011;61478;50.820;4.330;2022-11-24T04:54:23;6.47;;;1.83;;
35522;SDS011;61478;50.820;4.330;2022-11-24T04:56:50;6.97;;;1.63;;
35522;SDS011;61478;50.820;4.330;2022-11-24T04:59:16;8.60;;;1.75;;
35522;SDS011;61478;50.820;4.330;2022-11-24T05:01:43;6.38;;;1.50;;
35522;SDS011;61478;50.820;4.330;2022-11-24T05:04:10;6.65;;;1.48;;
35522;SDS011;61478;50.820;4.330;2022-11-24T05:06:38;8.35;;;1.67;;
35522;SDS011;61478;50.820;4.330;2022-11-24T05:09:07;9.68;;;1.85;;
35522;SDS011;61478;50.820;4.330;2022-11-24T05:11:37;5.25;;;1.05;;
35522;SDS011;61478;50.820;4.330;2022-11-24T05:14:03;4.15;;;1.40;;
35522;SDS011;61478;50.820;4.330;2022-11-24T05:16:29;6.47;;;1.33;;
35522;SDS011;61478;50.820;4.330;2022-11-24T05:18:55;6.68;;;1.88;;
35522;SDS011;61478;50.820;4.330;2022-11-24T05:21:20;7.72;;;1.88;;
35522;SDS011;61478;50.820;4.330;2022-11-24T05:23:47;6.78;;;1.92;;
35522;SDS011;61478;50.820;4.330;2022-11-24T05:26:13;8.50;;;2.00;;
35522;SDS011;61478;50.820;4.330;2022-11-24T05:28:39;7.15;;;2.65;;
35522;SDS011;61478;50.820;4.330;2022-11-24T05:31:05;11.02;;;2.63;;
35522;SDS011;61478;50.820;4.330;2022-11-24T05:33:31;10.90;;;2.40;;
35522;SDS011;61478;50.820;4.330;2022-11-24T05:36:04;12.38;;;2.67;;
35522;SDS011;61478;50.820;4.330;2022-11-24T05:38:31;8.00;;;2.60;;
35522;SDS011;61478;50.820;4.330;2022-11-24T05:41:01;11.32;;;2.78;;
35522;SDS011;61478;50.820;4.330;2022-11-24T05:43:29;11.27;;;2.72;;
35522;SDS011;61478;50.820;4.330;2022-11-24T05:45:59;14.50;;;2.72;;
35522;SDS011;61478;50.820;4.330;2022-11-24T05:48:25;12.75;;;2.78;;
35522;SDS011;61478;50.820;4.330;2022-11-24T05:50:55;15.65;;;3.42;;
35522;SDS011;61478;50.820;4.330;2022-11-24T05:53:22;21.73;;;3.90;;
35522;SDS011;61478;50.820;4.330;2022-11-24T05:55:49;16.30;;;3.58;;
35522;SDS011;61478;50.820;4.330;2022-11-24T05:58:15;21.63;;;4.03;;
35522;SDS011;61478;50.820;4.330;2022-11-24T06:00:41;19.10;;;4.18;;
35522;SDS011;61478;50.820;4.330;2022-11-24T06:03:08;15.57;;;3.60;;
35522;SDS011;61478;50.820;4.330;2022-11-24T06:05:35;18.23;;;4.40;;
35522;SDS011;61478;50.820;4.330;2022-11-24T06:08:01;26.00;;;4.78;;
35522;SDS011;61478;50.820;4.330;2022-11-24T06:10:27;15.82;;;4.15;;
35522;SDS011;61478;50.820;4.330;2022-11-24T06:12:53;24.40;;;5.38;;
35522;SDS011;61478;50.820;4.330;2022-11-24T06:15:19;19.40;;;4.40;;
35522;SDS011;61478;50.820;4.330;2022-11-24T06:17:51;20.98;;;4.97;;
35522;SDS011;61478;50.820;4.330;2022-11-24T06:22:46;22.95;;;4.53;;
35522;SDS011;61478;50.820;4.330;2022-11-24T06:25:12;25.25;;;5.20;;
35522;SDS011;61478;50.820;4.330;2022-11-24T06:27:38;23.75;;;5.32;;
35522;SDS011;61478;50.820;4.330;2022-11-24T06:30:05;17.88;;;4.20;;
35522;SDS011;61478;50.820;4.330;2022-11-24T06:32:31;22.33;;;5.50;;
35522;SDS011;61478;50.820;4.330;2022-11-24T06:34:57;27.00;;;5.20;;
35522;SDS011;61478;50.820;4.330;2022-11-24T06:37:23;22.98;;;5.05;;
35522;SDS011;61478;50.820;4.330;2022-11-24T06:39:49;25.25;;;5.68;;
35522;SDS011;61478;50.820;4.330;2022-11-24T06:42:15;19.55;;;4.70;;
35522;SDS011;61478;50.820;4.330;2022-11-24T06:44:45;23.60;;;5.00;;
35522;SDS011;61478;50.820;4.330;2022-11-24T06:47:12;26.80;;;4.82;;
35522;SDS011;61478;50.820;4.330;2022-11-24T06:49:38;27.98;;;6.30;;
35522;SDS011;61478;50.820;4.330;2022-11-24T06:52:05;19.75;;;5.28;;
35522;SDS011;61478;50.820;4.330;2022-11-24T06:54:31;20.50;;;4.95;;
35522;SDS011;61478;50.820;4.330;2022-11-24T06:56:57;24.00;;;5.20;;
35522;SDS011;61478;50.820;4.330;2022-11-24T06:59:23;29.25;;;5.70;;
35522;SDS011;61478;50.820;4.330;2022-11-24T07:01:50;22.25;;;4.65;;
35522;SDS011;61478;50.820;4.330;2022-11-24T07:04:17;21.15;;;6.03;;
35522;SDS011;61478;50.820;4.330;2022-11-24T07:06:43;20.52;;;5.07;;
35522;SDS011;61478;50.820;4.330;2022-11-24T07:09:10;15.95;;;4.32;;
35522;SDS011;61478;50.820;4.330;2022-11-24T07:11:39;17.77;;;4.75;;
35522;SDS011;61478;50.820;4.330;2022-11-24T07:14:05;21.48;;;4.18;;
35522;SDS011;61478;50.820;4.330;2022-11-24T07:16:31;15.10;;;4.13;;
35522;SDS011;61478;50.820;4.330;2022-11-24T07:18:58;23.20;;;5.00;;
35522;SDS011;61478;50.820;4.330;2022-11-24T07:21:25;18.25;;;4.53;;
35522;SDS011;61478;50.820;4.330;2022-11-24T07:23:53;22.48;;;5.90;;
35522;SDS011;61478;50.820;4.330;2022-11-24T07:26:20;18.70;;;4.05;;
35522;SDS011;61478;50.820;4.330;2022-11-24T07:28:47;20.77;;;5.05;;
35522;SDS011;61478;50.820;4.330;2022-11-24T07:31:14;15.90;;;4.18;;
35522;SDS011;61478;50.820;4.330;2022-11-24T07:33:46;18.60;;;4.07;;
35522;SDS011;61478;50.820;4.330;2022-11-24T07:36:13;16.98;;;3.45;;
35522;SDS011;61478;50.820;4.330;2022-11-24T07:38:39;16.42;;;3.65;;
35522;SDS011;61478;50.820;4.330;2022-11-24T07:41:06;19.60;;;4.40;;
35522;SDS011;61478;50.820;4.330;2022-11-24T07:43:34;19.80;;;4.45;;
35522;SDS011;61478;50.820;4.330;2022-11-24T07:46:08;13.32;;;3.55;;
35522;SDS011;61478;50.820;4.330;2022-11-24T07:48:35;22.38;;;3.78;;
35522;SDS011;61478;50.820;4.330;2022-11-24T07:51:01;17.73;;;4.35;;
35522;SDS011;61478;50.820;4.330;2022-11-24T07:53:28;19.55;;;3.47;;
35522;SDS011;61478;50.820;4.330;2022-11-24T07:55:56;17.80;;;4.05;;
35522;SDS011;61478;50.820;4.330;2022-11-24T07:58:26;17.52;;;4.20;;
35522;SDS011;61478;50.820;4.330;2022-11-24T08:00:53;18.75;;;4.40;;
35522;SDS011;61478;50.820;4.330;2022-11-24T08:03:20;17.13;;;4.28;;
35522;SDS011;61478;50.820;4.330;2022-11-24T08:05:58;24.98;;;5.00;;
35522;SDS011;61478;50.820;4.330;2022-11-24T08:08:25;15.40;;;4.07;;
35522;SDS011;61478;50.820;4.330;2022-11-24T08:10:51;16.20;;;3.83;;
35522;SDS011;61478;50.820;4.330;2022-11-24T08:13:18;24.17;;;4.30;;
35522;SDS011;61478;50.820;4.330;2022-11-24T08:15:44;21.45;;;3.92;;
35522;SDS011;61478;50.820;4.330;2022-11-24T08:18:10;19.65;;;3.83;;
35522;SDS011;61478;50.820;4.330;2022-11-24T08:20:36;18.30;;;3.58;;
35522;SDS011;61478;50.820;4.330;2022-11-24T08:23:02;18.10;;;4.25;;
35522;SDS011;61478;50.820;4.330;2022-11-24T08:25:34;20.88;;;4.60;;
35522;SDS011;61478;50.820;4.330;2022-11-24T08:28:03;20.17;;;4.13;;
35522;SDS011;61478;50.820;4.330;2022-11-24T08:30:29;15.40;;;3.85;;
35522;SDS011;61478;50.820;4.330;2022-11-24T08:32:58;22.00;;;4.07;;
35522;SDS011;61478;50.820;4.330;2022-11-24T08:35:28;17.45;;;4.35;;
35522;SDS011;61478;50.820;4.330;2022-11-24T08:38:03;23.63;;;4.35;;
35522;SDS011;61478;50.820;4.330;2022-11-24T08:40:29;23.77;;;4.63;;
35522;SDS011;61478;50.820;4.330;2022-11-24T08:42:57;22.58;;;4.45;;
35522;SDS011;61478;50.820;4.330;2022-11-24T08:45:26;23.27;;;4.35;;
35522;SDS011;61478;50.820;4.330;2022-11-24T08:47:56;15.65;;;4.57;;
35522;SDS011;61478;50.820;4.330;2022-11-24T08:50:23;25.02;;;4.78;;
35522;SDS011;61478;50.820;4.330;2022-11-24T08:52:52;18.83;;;4.22;;
35522;SDS011;61478;50.820;4.330;2022-11-24T08:55:18;21.33;;;4.38;;
35522;SDS011;61478;50.820;4.330;2022-11-24T08:57:50;21.27;;;5.20;;
35522;SDS011;61478;50.820;4.330;2022-11-24T09:00:19;21.35;;;4.15;;
35522;SDS011;61478;50.820;4.330;2022-11-24T09:02:54;18.95;;;4.28;;
35522;SDS011;61478;50.820;4.330;2022-11-24T09:05:21;26.42;;;4.20;;
35522;SDS011;61478;50.820;4.330;2022-11-24T09:07:50;18.67;;;4.43;;
35522;SDS011;61478;50.820;4.330;2022-11-24T09:10:16;19.00;;;3.88;;
35522;SDS011;61478;50.820;4.330;2022-11-24T09:12:46;22.80;;;4.22;;
35522;SDS011;61478;50.820;4.330;2022-11-24T09:15:18;22.20;;;4.70;;
35522;SDS011;61478;50.820;4.330;2022-11-24T09:17:44;18.25;;;4.70;;
35522;SDS011;61478;50.820;4.330;2022-11-24T09:20:10;19.88;;;4.10;;
35522;SDS011;61478;50.820;4.330;2022-11-24T09:22:39;22.30;;;4.72;;
35522;SDS011;61478;50.820;4.330;2022-11-24T09:25:07;18.42;;;3.58;;
35522;SDS011;61478;50.820;4.330;2022-11-24T09:27:33;22.73;;;4.78;;
35522;SDS011;61478;50.820;4.330;2022-11-24T09:29:59;31.60;;;4.72;;
35522;SDS011;61478;50.820;4.330;2022-11-24T09:32:27;15.18;;;3.80;;
35522;SDS011;61478;50.820;4.330;2022-11-24T09:34:59;24.98;;;7.28;;
35522;SDS011;61478;50.820;4.330;2022-11-24T09:37:29;21.25;;;4.18;;
35522;SDS011;61478;50.820;4.330;2022-11-24T09:40:05;24.00;;;4.65;;
35522;SDS011;61478;50.820;4.330;2022-11-24T09:48:09;17.70;;;4.30;;
35522;SDS011;61478;50.820;4.330;2022-11-24T09:50:43;22.27;;;4.50;;
35522;SDS011;61478;50.820;4.330;2022-11-24T09:56:32;23.73;;;4.35;;
35522;SDS011;61478;50.820;4.330;2022-11-24T10:01:35;20.90;;;4.68;;
35522;SDS011;61478;50.820;4.330;2022-11-24T10:10:33;17.48;;;4.25;;
35522;SDS011;61478;50.820;4.330;2022-11-24T10:27:06;28.85;;;5.00;;
35522;SDS011;61478;50.820;4.330;2022-11-24T10:29:41;21.25;;;4.97;;
35522;SDS011;61478;50.820;4.330;2022-11-24T10:32:29;28.85;;;5.38;;
35522;SDS011;61478;50.820;4.330;2022-11-24T10:35:18;26.30;;;5.30;;
35522;SDS011;61478;50.820;4.330;2022-11-24T10:37:51;18.05;;;4.57;;
35522;SDS011;61478;50.820;4.330;2022-11-24T10:40:40;19.33;;;4.55;;
35522;SDS011;61478;50.820;4.330;2022-11-24T10:43:11;27.83;;;5.18;;
35522;SDS011;61478;50.820;4.330;2022-11-24T10:45:37;29.73;;;4.93;;
35522;SDS011;61478;50.820;4.330;2022-11-24T10:48:05;23.38;;;5.38;;
35522;SDS011;61478;50.820;4.330;2022-11-24T10:54:11;28.20;;;5.80;;
35522;SDS011;61478;50.820;4.330;2022-11-24T10:56:46;25.63;;;4.93;;
35522;SDS011;61478;50.820;4.330;2022-11-24T11:01:51;31.25;;;5.30;;
35522;SDS011;61478;50.820;4.330;2022-11-24T11:04:19;28.48;;;4.70;;
35522;SDS011;61478;50.820;4.330;2022-11-24T11:06:48;28.83;;;5.00;;
35522;SDS011;61478;50.820;4.330;2022-11-24T11:11:44;25.38;;;5.32;;
35522;SDS011;61478;50.820;4.330;2022-11-24T11:14:28;26.15;;;5.32;;
35522;SDS011;61478;50.820;4.330;2022-11-24T11:16:59;22.85;;;5.25;;
35522;SDS011;61478;50.820;4.330;2022-11-24T11:19:36;23.83;;;5.25;;
35522;SDS011;61478;50.820;4.330;2022-11-24T11:24:36;20.58;;;4.28;;
35522;SDS011;61478;50.820;4.330;2022-11-24T11:27:15;28.45;;;5.03;;
35522;SDS011;61478;50.820;4.330;2022-11-24T11:29:51;26.55;;;5.35;;
35522;SDS011;61478;50.820;4.330;2022-11-24T11:32:18;27.63;;;5.32;;
35522;SDS011;61478;50.820;4.330;2022-11-24T11:34:46;15.65;;;3.80;;
35522;SDS011;61478;50.820;4.330;2022-11-24T11:37:13;28.52;;;4.72;;
35522;SDS011;61478;50.820;4.330;2022-11-24T11:39:42;23.05;;;4.93;;
35522;SDS011;61478;50.820;4.330;2022-11-24T11:45:13;27.40;;;5.55;;
35522;SDS011;61478;50.820;4.330;2022-11-24T11:47:47;23.38;;;4.80;;
35522;SDS011;61478;50.820;4.330;2022-11-24T11:50:16;36.45;;;12.85;;
35522;SDS011;61478;50.820;4.330;2022-11-24T11:52:59;41.95;;;12.48;;
35522;SDS011;61478;50.820;4.330;2022-11-24T11:58:46;23.80;;;4.80;;
35522;SDS011;61478;50.820;4.330;2022-11-24T12:15:21;26.38;;;4.95;;
35522;SDS011;61478;50.820;4.330;2022-11-24T12:18:19;27.77;;;5.72;;
35522;SDS011;61478;50.820;4.330;2022-11-24T12:21:16;25.52;;;5.07;;
35522;SDS011;61478;50.820;4.330;2022-11-24T12:26:28;27.23;;;6.32;;
35522;SDS011;61478;50.820;4.330;2022-11-24T12:32:12;27.95;;;5.72;;
35522;SDS011;61478;50.820;4.330;2022-11-24T12:43:03;21.00;;;5.00;;
35522;SDS011;61478;50.820;4.330;2022-11-24T12:45:48;20.23;;;4.35;;
35522;SDS011;61478;50.820;4.330;2022-11-24T12:51:28;16.00;;;4.10;;
35522;SDS011;61478;50.820;4.330;2022-11-24T12:54:11;25.70;;;5.22;;
35522;SDS011;61478;50.820;4.330;2022-11-24T13:07:15;17.83;;;4.30;;
35522;SDS011;61478;50.820;4.330;2022-11-24T13:12:55;16.65;;;4.35;;
35522;SDS011;61478;50.820;4.330;2022-11-24T13:15:23;25.52;;;5.18;;
35522;SDS011;61478;50.820;4.330;2022-11-24T13:17:50;24.17;;;4.47;;
35522;SDS011;61478;50.820;4.330;2022-11-24T13:22:49;27.15;;;6.10;;
35522;SDS011;61478;50.820;4.330;2022-11-24T13:25:19;26.58;;;5.55;;
35522;SDS011;61478;50.820;4.330;2022-11-24T13:27:49;22.10;;;4.70;;
35522;SDS011;61478;50.820;4.330;2022-11-24T13:33:17;22.70;;;4.78;;
35522;SDS011;61478;50.820;4.330;2022-11-24T13:38:38;27.02;;;5.88;;
35522;SDS011;61478;50.820;4.330;2022-11-24T13:49:50;26.77;;;5.07;;
35522;SDS011;61478;50.820;4.330;2022-11-24T13:57:50;31.88;;;6.00;;
35522;SDS011;61478;50.820;4.330;2022-11-24T14:00:29;29.02;;;4.70;;
35522;SDS011;61478;50.820;4.330;2022-11-24T14:03:03;25.17;;;5.20;;
35522;SDS011;61478;50.820;4.330;2022-11-24T14:05:46;28.63;;;5.20;;
35522;SDS011;61478;50.820;4.330;2022-11-24T14:08:27;26.20;;;5.43;;
35522;SDS011;61478;50.820;4.330;2022-11-24T14:10:57;24.42;;;5.90;;
35522;SDS011;61478;50.820;4.330;2022-11-24T14:13:25;28.60;;;4.75;;
35522;SDS011;61478;50.820;4.330;2022-11-24T14:18:49;32.85;;;6.78;;
35522;SDS011;61478;50.820;4.330;2022-11-24T14:26:31;29.10;;;4.88;;
35522;SDS011;61478;50.820;4.330;2022-11-24T14:29:05;29.95;;;5.75;;
35522;SDS011;61478;50.820;4.330;2022-11-24T14:31:36;21.80;;;5.18;;
35522;SDS011;61478;50.820;4.330;2022-11-24T14:34:07;32.55;;;5.60;;
35522;SDS011;61478;50.820;4.330;2022-11-24T14:36:37;34.80;;;5.40;;
35522;SDS011;61478;50.820;4.330;2022-11-24T14:39:03;40.80;;;7.03;;
35522;SDS011;61478;50.820;4.330;2022-11-24T14:41:29;28.35;;;5.38;;
35522;SDS011;61478;50.820;4.330;2022-11-24T14:46:30;30.52;;;5.43;;
35522;SDS011;61478;50.820;4.330;2022-11-24T14:48:57;35.30;;;6.05;;
35522;SDS011;61478;50.820;4.330;2022-11-24T14:51:23;27.83;;;4.95;;
35522;SDS011;61478;50.820;4.330;2022-11-24T14:53:51;26.85;;;5.15;;
35522;SDS011;61478;50.820;4.330;2022-11-24T14:56:26;20.77;;;5.47;;
35522;SDS011;61478;50.820;4.330;2022-11-24T14:59:03;25.92;;;5.22;;
35522;SDS011;61478;50.820;4.330;2022-11-24T15:01:47;35.00;;;6.53;;
35522;SDS011;61478;50.820;4.330;2022-11-24T15:04:23;32.33;;;4.93;;
35522;SDS011;61478;50.820;4.330;2022-11-24T15:12:30;26.02;;;4.70;;
35522;SDS011;61478;50.820;4.330;2022-11-24T15:17:28;31.98;;;5.10;;
35522;SDS011;61478;50.820;4.330;2022-11-24T15:20:02;27.33;;;5.50;;
35522;SDS011;61478;50.820;4.330;2022-11-24T15:22:42;26.00;;;4.93;;
35522;SDS011;61478;50.820;4.330;2022-11-24T15:28:04;40.08;;;6.85;;
35522;SDS011;61478;50.820;4.330;2022-11-24T15:30:30;22.15;;;5.63;;
35522;SDS011;61478;50.820;4.330;2022-11-24T15:32:58;40.85;;;5.78;;
35522;SDS011;61478;50.820;4.330;2022-11-24T15:35:25;27.50;;;5.30;;
35522;SDS011;61478;50.820;4.330;2022-11-24T15:37:55;24.25;;;5.18;;
35522;SDS011;61478;50.820;4.330;2022-11-24T15:40:21;19.40;;;4.68;;
35522;SDS011;61478;50.820;4.330;2022-11-24T15:42:51;34.20;;;5.55;;
35522;SDS011;61478;50.820;4.330;2022-11-24T15:45:19;26.73;;;5.45;;
35522;SDS011;61478;50.820;4.330;2022-11-24T15:47:46;32.75;;;6.10;;
35522;SDS011;61478;50.820;4.330;2022-11-24T15:50:12;35.30;;;4.85;;
35522;SDS011;61478;50.820;4.330;2022-11-24T15:52:38;27.05;;;4.93;;
35522;SDS011;61478;50.820;4.330;2022-11-24T15:55:05;32.30;;;5.63;;
35522;SDS011;61478;50.820;4.330;2022-11-24T15:57:36;27.77;;;5.63;;
35522;SDS011;61478;50.820;4.330;2022-11-24T16:00:02;22.05;;;4.85;;
35522;SDS011;61478;50.820;4.330;2022-11-24T16:02:29;28.05;;;6.18;;
35522;SDS011;61478;50.820;4.330;2022-11-24T16:04:55;23.75;;;4.60;;
35522;SDS011;61478;50.820;4.330;2022-11-24T16:07:20;24.88;;;6.00;;
35522;SDS011;61478;50.820;4.330;2022-11-24T16:09:46;23.65;;;4.82;;
35522;SDS011;61478;50.820;4.330;2022-11-24T16:12:12;25.63;;;5.25;;
35522;SDS011;61478;50.820;4.330;2022-11-24T16:14:38;27.77;;;5.07;;
35522;SDS011;61478;50.820;4.330;2022-11-24T16:17:04;28.98;;;5.93;;
35522;SDS011;61478;50.820;4.330;2022-11-24T16:19:30;22.90;;;5.20;;
35522;SDS011;61478;50.820;4.330;2022-11-24T16:21:56;26.63;;;5.82;;
35522;SDS011;61478;50.820;4.330;2022-11-24T16:24:22;27.48;;;5.40;;
35522;SDS011;61478;50.820;4.330;2022-11-24T16:26:48;24.60;;;5.05;;
35522;SDS011;61478;50.820;4.330;2022-11-24T16:29:13;20.25;;;4.65;;
35522;SDS011;61478;50.820;4.330;2022-11-24T16:31:39;31.95;;;5.40;;
35522;SDS011;61478;50.820;4.330;2022-11-24T16:34:07;26.50;;;5.28;;
35522;SDS011;61478;50.820;4.330;2022-11-24T16:36:33;27.30;;;5.20;;
35522;SDS011;61478;50.820;4.330;2022-11-24T16:38:59;20.33;;;4.57;;
35522;SDS011;61478;50.820;4.330;2022-11-24T16:41:25;25.85;;;6.15;;
35522;SDS011;61478;50.820;4.330;2022-11-24T16:43:51;27.20;;;6.78;;
35522;SDS011;61478;50.820;4.330;2022-11-24T16:46:18;27.20;;;5.30;;
35522;SDS011;61478;50.820;4.330;2022-11-24T16:48:46;29.58;;;6.53;;
35522;SDS011;61478;50.820;4.330;2022-11-24T16:51:14;25.45;;;7.22;;
35522;SDS011;61478;50.820;4.330;2022-11-24T16:53:40;31.63;;;7.82;;
35522;SDS011;61478;50.820;4.330;2022-11-24T16:56:06;30.85;;;7.35;;
35522;SDS011;61478;50.820;4.330;2022-11-24T16:58:37;28.60;;;6.78;;
35522;SDS011;61478;50.820;4.330;2022-11-24T17:01:13;25.45;;;6.95;;
35522;SDS011;61478;50.820;4.330;2022-11-24T17:03:39;23.65;;;7.20;;
35522;SDS011;61478;50.820;4.330;2022-11-24T17:06:05;25.30;;;6.15;;
35522;SDS011;61478;50.820;4.330;2022-11-24T17:08:34;23.90;;;6.85;;
35522;SDS011;61478;50.820;4.330;2022-11-24T17:11:08;40.03;;;8.50;;
35522;SDS011;61478;50.820;4.330;2022-11-24T17:13:35;28.30;;;7.70;;